ADDS METAR Data INFO
IDs: Format: Raw Decoded Include TAF

Data at: 0841 UTC 27 Jun 2017

KRAS 270835Z AUTO 14004KT 10SM SCT020 SCT041 27/23 A2994 RMK AO2 T02670232
KRAS 270815Z AUTO 15005KT 10SM SCT020 SCT041 27/23 A2995 RMK AO2 T02700231
KRAS 270755Z AUTO 16004KT 10SM SCT020 SCT027 27/23 A2995 RMK AO2 T02700234
KRAS 270735Z AUTO 12007KT 10SM SCT019 SCT027 27/23 A2995 RMK AO2 T02710226
KRAS 270715Z AUTO 12005KT 10SM SCT019 27/23 A2996 RMK AO2 T02710227
KRAS 270655Z AUTO 12007KT 10SM SCT019 27/23 A2996 RMK AO2 T02710226
KRAS 270635Z AUTO 11007KT 10SM CLR 27/23 A2997 RMK AO2 T02700229
KRAS 270615Z AUTO 12007KT 10SM CLR 27/23 A2997 RMK AO2 T02700226
KRAS 270555Z AUTO 12008KT 10SM SCT020 SCT070 27/23 A2998 RMK AO2 60001 T02700230 10285 20270 403040243
KRAS 270535Z AUTO 13011G14KT 10SM BKN022 BKN030 BKN037 27/23 A2997 RMK AO2 T02730234
KRAS 270515Z AUTO 11008KT 10SM SCT022 27/23 A2997 RMK AO2 T02730228
KRAS 270455Z AUTO 09007KT 10SM SCT023 27/23 A2997 RMK AO2 T02730226
KRAS 270435Z AUTO 10009KT 10SM CLR 27/22 A2996 RMK AO2 LTG DSNT SW T02740223
KRAS 270415Z AUTO 11008KT 10SM CLR 28/22 A2996 RMK AO2 T02750222
KRAS 270355Z AUTO 11007KT 10SM CLR 28/22 A2996 RMK AO2 T02750221
KRAS 270335Z AUTO 10007KT 10SM SCT023 28/22 A2997 RMK AO2 T02750224
KRAS 270315Z AUTO 11008KT 10SM SCT023 SCT030 28/22 A2997 RMK AO2 T02750223
KRAS 270255Z AUTO 12007KT 10SM SCT023 SCT030 28/22 A2996 RMK AO2 60001 T02750221
KRAS 270235Z AUTO 12006KT 10SM SCT023 28/23 A2997 RMK AO2 T02750229
KRAS 270215Z AUTO 11007KT 10SM SCT020 28/23 A2997 RMK AO2 T02750232
KRAS 270155Z AUTO 11005KT 10SM SCT020 SCT031 SCT048 27/24 A2997 RMK AO2 P0001 T02720235
KRAS 270135Z AUTO 11007KT 7SM -RA SCT022 BKN030 BKN048 28/23 A2997 RMK AO2 P0001 T02750233
KRAS 270115Z AUTO 11008KT 10SM SCT020 SCT028 28/23 A2997 RMK AO2 T02790228
KRAS 270055Z AUTO 11007KT 10SM SCT020 SCT030 28/23 A2996 RMK AO2 T02790230
KRAS 270035Z AUTO 12007KT 10SM SCT018 28/23 A2996 RMK AO2 T02800230
KRAS 270015Z AUTO 11008KT 10SM SCT022 SCT110 28/23 A2996 RMK AO2 T02810225
KRAS 262355Z AUTO 10007KT 10SM OVC110 28/22 A2997 RMK AO2 T02840222 10304 20274
KRAS 262335Z AUTO 11008KT 10SM BKN110 29/22 A2996 RMK AO2 T02910220
KRAS 262315Z AUTO 10009G14KT 10SM CLR 29/22 A2996 RMK AO2 T02910222
KRAS 262255Z AUTO 10008KT 10SM CLR 29/22 A2996 RMK AO2 T02910221
KRAS 262235Z AUTO 12010G14KT 10SM SCT017 29/23 A2996 RMK AO2 LTG DSNT SW T02890225
KRAS 262215Z AUTO 12010KT 10SM SCT019 SCT090 29/24 A2996 RMK AO2 LTG DSNT N T02940235
KRAS 262155Z AUTO 11010KT 10SM BKN090 BKN110 30/23 A2997 RMK AO2 T02960232
KRAS 262135Z AUTO 11008KT 10SM SCT050 SCT070 BKN110 29/23 A2998 RMK AO2 T02940233
KRAS 262115Z AUTO 09005KT 10SM SCT039 SCT055 BKN095 28/23 A2999 RMK AO2 T02810234
KRAS 262055Z AUTO 07007KT 7SM -RA SCT019 BKN065 OVC075 28/24 A2999 RMK AO2 T02750239
KRAS 262035Z AUTO 11010KT 10SM SCT075 30/23 A3000 RMK AO2 LTG DSNT W T02950233
KRAS 262015Z AUTO 13012KT 10SM CLR 29/24 A3000 RMK AO2 T02930237
KRAS 261955Z AUTO 13011KT 10SM SCT020 SCT026 30/23 A2999 RMK AO2 T02950232
KRAS 261935Z AUTO 10011KT 10SM SCT018 SCT023 30/23 A3000 RMK AO2 T03010234
KRAS 261915Z AUTO 09008KT 10SM CLR 30/23 A3001 RMK AO2 T02970232
KRAS 261855Z AUTO 10011KT 10SM CLR 30/23 A3002 RMK AO2 T02950232
KRAS 261835Z AUTO 10009KT 10SM CLR 30/23 A3003 RMK AO2 T02970230
KRAS 261815Z AUTO 08009KT 10SM CLR 30/23 A3004 RMK AO2 T02960233
KRAS 261755Z AUTO 09008KT 10SM CLR 30/23 A3004 RMK AO2 60005 T02970230 10300 20251
KRAS 261735Z AUTO 11007KT 10SM SCT120 30/23 A3004 RMK AO2 T03000228
KRAS 261715Z AUTO 10005KT 10SM BKN120 29/23 A3006 RMK AO2 T02920232
KRAS 261655Z AUTO 08008KT 10SM SCT021 SCT029 SCT035 29/23 A3006 RMK AO2 T02900228
KRAS 261635Z AUTO 11006KT 10SM SCT019 SCT032 BKN060 28/24 A3006 RMK AO2 T02840235
KRAS 261615Z AUTO 07005KT 10SM SCT019 BKN055 28/23 A3006 RMK AO2 T02810232
KRAS 261555Z AUTO 00000KT 10SM SCT021 28/23 A3006 RMK AO2 T02770228
KRAS 261535Z AUTO 00000KT 10SM CLR 27/23 A3006 RMK AO2 T02720232
KRAS 261515Z AUTO 00000KT 10SM SCT050 27/23 A3006 RMK AO2 T02690232
KRAS 261455Z AUTO 23005KT 10SM SCT035 SCT042 SCT050 27/24 A3006 RMK AO2 60005 T02690236
KRAS 261435Z AUTO 21009KT 10SM BKN018 BKN023 OVC042 26/23 A3006 RMK AO2 LTG DSNT N T02600233
KRAS 261415Z AUTO 16009KT 10SM BKN018 BKN022 OVC038 28/24 A3006 RMK AO2 T02750242
KRAS 261355Z AUTO 00000KT 2 1/2SM RA SCT018 SCT027 BKN037 27/23 A3007 RMK AO2 P0005 T02650233
KRAS 261335Z AUTO 34003KT 10SM BKN018 BKN029 27/24 A3006 RMK AO2 T02700235
KRAS 261315Z AUTO 00000KT 10SM BKN027 27/23 A3005 RMK AO2 T02690230
KRAS 261255Z AUTO 31003KT 10SM SCT023 BKN033 27/23 A3005 RMK AO2 T02650227
KRAS 261235Z AUTO 32003KT 10SM SCT033 26/23 A3005 RMK AO2 T02590229
KRAS 261215Z AUTO 00000KT 10SM CLR 25/23 A3005 RMK AO2 T02520230
KRAS 261155Z AUTO 00000KT 10SM SCT075 SCT090 SCT110 25/23 A3004 RMK AO2 P0008 60010 70135 T02520225 10275 20243
KRAS 261135Z AUTO 00000KT 10SM SCT020 BKN060 OVC110 25/22 A3004 RMK AO2 P0008 T02480224
KRAS 261115Z AUTO 14010KT 10SM SCT018 BKN025 BKN033 25/22 A3004 RMK AO2 T02480223
KRAS 261055Z AUTO 00000KT 10SM SCT034 SCT041 25/23 A3003 RMK AO2 T02520232
KRAS 261035Z AUTO 00000KT 10SM SCT021 25/23 A3003 RMK AO2 T02540230
KRAS 261015Z AUTO 22003KT 10SM SCT021 25/23 A3003 RMK AO2 T02540229
KRAS 260955Z AUTO 00000KT 10SM SCT080 26/24 A3003 RMK AO2 T02600235
KRAS 260935Z AUTO 08004KT 10SM SCT018 BKN070 OVC080 26/23 A3003 RMK AO2 T02600229
KRAS 260915Z AUTO 15005KT 10SM SCT021 BKN038 BKN044 27/24 A3004 RMK AO2 T02650235
KRAS 260855Z AUTO 15006KT 10SM BKN019 BKN028 BKN075 27/23 A3004 RMK AO2 P0002 60002 T02680234
KRAS 260835Z AUTO 08003KT 10SM BKN019 BKN041 OVC090 26/24 A3004 RMK AO2 P0001 T02630240
KRAS 260815Z AUTO 08007G18KT 7SM DZ BKN019 BKN032 OVC100 26/23 A3004 RMK AO2 P0001 T02630234
KRAS 260755Z AUTO 13008KT 10SM SCT019 BKN027 BKN070 27/23 A3003 RMK AO2 T02740232
KRAS 260735Z AUTO 13007KT 10SM BKN020 BKN040 BKN065 27/23 A3004 RMK AO2 T02740232
KRAS 260715Z AUTO 14010KT 10SM BKN020 28/23 A3004 RMK AO2 T02750232
KRAS 260655Z AUTO 12009KT 10SM SCT018 27/23 A3005 RMK AO2 T02740233
KRAS 260635Z AUTO 13011KT 10SM CLR 28/23 A3005 RMK AO2 T02750229
KRAS 260615Z AUTO 12012G16KT 10SM SCT016 SCT021 SCT032 27/23 A3005 RMK AO2 T02740232
KRAS 260555Z AUTO 14009G16KT 10SM SCT016 BKN033 BKN041 28/24 A3006 RMK AO2 T02750239 10286 20275 402990226
KRAS 260535Z AUTO 13012G17KT 10SM BKN020 SCT033 28/23 A3006 RMK AO2 T02770231
KRAS 260515Z AUTO 12009KT 10SM SCT020 SCT024 28/24 A3006 RMK AO2 T02770236
KRAS 260455Z AUTO 12009KT 10SM CLR 28/23 A3006 RMK AO2 T02770233
KRAS 260435Z AUTO 12011G16KT 10SM CLR 28/23 A3006 RMK AO2 T02760232
KRAS 260415Z AUTO 12008KT 10SM CLR 28/23 A3006 RMK AO2 T02760231
KRAS 260355Z AUTO 12009KT 10SM SCT020 SCT032 SCT065 28/23 A3006 RMK AO2 T02780232
KRAS 260335Z AUTO 11011G15KT 10SM SCT020 SCT025 28/23 A3006 RMK AO2 T02780232
KRAS 260315Z AUTO 11008KT 10SM SCT023 SCT029 28/23 A3006 RMK AO2 T02780230
KRAS 260255Z AUTO 12012G15KT 10SM SCT023 SCT029 28/23 A3006 RMK AO2 T02780228
KRAS 260235Z AUTO 11009KT 10SM SCT023 SCT029 28/23 A3005 RMK AO2 T02780226
KRAS 260215Z AUTO 12008KT 10SM SCT023 28/23 A3005 RMK AO2 T02780225
KRAS 260155Z AUTO 13010KT 10SM SCT023 SCT028 28/23 A3005 RMK AO2 T02800228
KRAS 260135Z AUTO 12009KT 10SM SCT021 28/23 A3005 RMK AO2 T02780228
KRAS 260115Z AUTO 12007KT 10SM SCT021 28/23 A3005 RMK AO2 T02800230
KRAS 260055Z AUTO 11007KT 10SM CLR 28/23 A3005 RMK AO2 T02820230
KRAS 260035Z AUTO 11007KT 10SM CLR 28/23 A3005 RMK AO2 T02830228
KRAS 260015Z AUTO 11007KT 10SM SCT022 SCT027 29/23 A3005 RMK AO2 T02850229
KRAS 252355Z AUTO 10009KT 10SM SCT024 29/23 A3005 RMK AO2 T02880227 10299 20263
KRAS 252335Z AUTO 10011KT 10SM CLR 29/23 A3005 RMK AO2 T02910229
KRAS 252315Z AUTO 10009KT 10SM CLR 30/23 A3005 RMK AO2 T02950231
KRAS 252255Z AUTO 10007KT 10SM CLR 29/23 A3005 RMK AO2 T02890227
KRAS 252235Z AUTO 11009KT 10SM CLR 29/23 A3004 RMK AO2 T02880225
KRAS 252215Z AUTO 10007KT 10SM CLR 29/23 A3005 RMK AO2 LTG DSNT NW T02940228
KRAS 252155Z AUTO 09007KT 10SM CLR 30/23 A3006 RMK AO2 LTG DSNT SW AND NW T02980227
KRAS 252135Z AUTO 07007KT 10SM CLR 29/23 A3006 RMK AO2 LTG DSNT N T02920230
KRAS 252115Z AUTO 08008KT 10SM CLR 29/23 A3006 RMK AO2 LTG DSNT N T02930233
KRAS 252055Z AUTO 07009KT 10SM CLR 29/24 A3006 RMK AO2 LTG DSNT N T02940235


Page loaded:  08:41 UTC  |   01:41 AM Pacific  |   02:41 AM Mountain  |   03:41 AM Central  |   04:41 AM Eastern

 

ADVISORIES

FORECASTS

FORECASTS

OBSERVATIONS

USER TOOLS

ABOUT US